sensor_id;sensor_type;location;lat;lon;timestamp;pressure;altitude;pressure_sealevel;temperature;humidity
22004;BME280;11166;48.692;8.182;2022-12-29T12:00:51;98270.84;;;12.42;81.06
22004;BME280;11166;48.692;8.182;2022-12-29T12:03:21;98277.06;;;12.41;81.92
22004;BME280;11166;48.692;8.182;2022-12-29T12:05:58;98261.22;;;12.43;80.89
22004;BME280;11166;48.692;8.182;2022-12-29T12:13:59;98244.75;;;12.61;79.66
22004;BME280;11166;48.692;8.182;2022-12-29T12:16:35;98238.69;;;12.67;80.01
22004;BME280;11166;48.692;8.182;2022-12-29T12:21:41;98242.78;;;12.86;77.76
22004;BME280;11166;48.692;8.182;2022-12-29T12:29:38;98233.31;;;13.03;77.75
22004;BME280;11166;48.692;8.182;2022-12-29T12:32:15;98237.97;;;13.13;76.06
22004;BME280;11166;48.692;8.182;2022-12-29T12:34:43;98231.91;;;13.19;76.41
22004;BME280;11166;48.692;8.182;2022-12-29T12:37:15;98230.75;;;13.15;76.90
22004;BME280;11166;48.692;8.182;2022-12-29T12:42:51;98224.75;;;13.14;76.05
22004;BME280;11166;48.692;8.182;2022-12-29T12:48:27;98230.31;;;13.18;75.53
22004;BME280;11166;48.692;8.182;2022-12-29T12:56:51;98224.56;;;12.86;79.62
22004;BME280;11166;48.692;8.182;2022-12-29T13:02:14;98218.47;;;12.80;79.62
22004;BME280;11166;48.692;8.182;2022-12-29T13:04:49;98218.53;;;12.74;80.45
22004;BME280;11166;48.692;8.182;2022-12-29T13:07:58;98218.28;;;12.64;81.91
22004;BME280;11166;48.692;8.182;2022-12-29T13:10:19;98213.00;;;12.70;81.64
22004;BME280;11166;48.692;8.182;2022-12-29T13:13:33;98195.75;;;12.58;82.13
22004;BME280;11166;48.692;8.182;2022-12-29T13:15:56;98201.63;;;12.53;82.59
22004;BME280;11166;48.692;8.182;2022-12-29T13:23:57;98187.06;;;12.64;80.24
22004;BME280;11166;48.692;8.182;2022-12-29T13:26:37;98189.22;;;12.67;80.54
22004;BME280;11166;48.692;8.182;2022-12-29T13:37:53;98183.97;;;12.97;81.33
22004;BME280;11166;48.692;8.182;2022-12-29T13:40:23;98181.69;;;13.00;78.58
22004;BME280;11166;48.692;8.182;2022-12-29T13:42:50;98193.00;;;12.94;79.35
22004;BME280;11166;48.692;8.182;2022-12-29T13:45:20;98189.41;;;12.95;78.42
22004;BME280;11166;48.692;8.182;2022-12-29T13:48:17;98176.69;;;12.99;77.06
22004;BME280;11166;48.692;8.182;2022-12-29T13:50:50;98177.84;;;12.91;77.09
22004;BME280;11166;48.692;8.182;2022-12-29T13:58:54;98174.88;;;12.99;76.00
22004;BME280;11166;48.692;8.182;2022-12-29T14:02:37;98177.50;;;12.99;75.16
22004;BME280;11166;48.692;8.182;2022-12-29T14:04:28;98184.63;;;13.04;75.76
22004;BME280;11166;48.692;8.182;2022-12-29T14:07:15;98172.19;;;13.06;75.39
22004;BME280;11166;48.692;8.182;2022-12-29T14:12:31;98190.28;;;13.12;76.74
22004;BME280;11166;48.692;8.182;2022-12-29T14:17:37;98193.28;;;13.16;74.94
22004;BME280;11166;48.692;8.182;2022-12-29T14:20:15;98197.31;;;13.12;75.19
22004;BME280;11166;48.692;8.182;2022-12-29T14:22:56;98196.19;;;13.08;75.06
22004;BME280;11166;48.692;8.182;2022-12-29T14:28:30;98202.00;;;13.22;74.28
22004;BME280;11166;48.692;8.182;2022-12-29T14:31:01;98212.31;;;13.16;74.50
22004;BME280;11166;48.692;8.182;2022-12-29T14:33:31;98226.75;;;13.12;76.13
22004;BME280;11166;48.692;8.182;2022-12-29T14:36:20;98228.13;;;13.03;77.00
22004;BME280;11166;48.692;8.182;2022-12-29T14:38:47;98267.59;;;12.89;80.26
22004;BME280;11166;48.692;8.182;2022-12-29T14:43:54;98334.25;;;11.87;88.75
22004;BME280;11166;48.692;8.182;2022-12-29T14:46:20;98340.06;;;11.32;93.44
22004;BME280;11166;48.692;8.182;2022-12-29T14:48:45;98327.09;;;10.94;94.82
22004;BME280;11166;48.692;8.182;2022-12-29T14:51:19;98318.72;;;10.61;96.91
22004;BME280;11166;48.692;8.182;2022-12-29T14:53:50;98319.78;;;10.47;97.80
22004;BME280;11166;48.692;8.182;2022-12-29T14:56:18;98314.59;;;10.47;99.42
22004;BME280;11166;48.692;8.182;2022-12-29T15:01:39;98324.19;;;10.40;100.00
22004;BME280;11166;48.692;8.182;2022-12-29T15:04:16;98311.50;;;10.18;100.00
22004;BME280;11166;48.692;8.182;2022-12-29T15:06:43;98309.91;;;10.24;100.00
22004;BME280;11166;48.692;8.182;2022-12-29T15:09:30;98303.91;;;10.23;100.00
22004;BME280;11166;48.692;8.182;2022-12-29T15:14:53;98313.63;;;10.35;100.00
22004;BME280;11166;48.692;8.182;2022-12-29T15:17:37;98303.66;;;10.38;100.00
22004;BME280;11166;48.692;8.182;2022-12-29T15:20:23;98303.03;;;10.43;100.00
22004;BME280;11166;48.692;8.182;2022-12-29T15:22:53;98304.06;;;10.35;100.00
22004;BME280;11166;48.692;8.182;2022-12-29T15:25:19;98307.84;;;10.32;100.00
22004;BME280;11166;48.692;8.182;2022-12-29T15:28:10;98299.47;;;10.37;100.00
22004;BME280;11166;48.692;8.182;2022-12-29T15:30:50;98306.47;;;10.37;100.00
22004;BME280;11166;48.692;8.182;2022-12-29T15:33:21;98303.06;;;10.36;100.00
22004;BME280;11166;48.692;8.182;2022-12-29T15:35:50;98323.81;;;10.36;100.00
22004;BME280;11166;48.692;8.182;2022-12-29T15:38:21;98319.81;;;10.33;100.00
22004;BME280;11166;48.692;8.182;2022-12-29T15:40:52;98332.16;;;10.45;100.00
22004;BME280;11166;48.692;8.182;2022-12-29T15:44:43;98333.94;;;10.51;100.00
22004;BME280;11166;48.692;8.182;2022-12-29T15:46:37;98330.94;;;10.47;100.00
22004;BME280;11166;48.692;8.182;2022-12-29T15:49:08;98330.16;;;10.40;100.00
22004;BME280;11166;48.692;8.182;2022-12-29T15:51:36;98342.31;;;10.40;100.00
22004;BME280;11166;48.692;8.182;2022-12-29T15:54:03;98356.31;;;10.32;100.00
22004;BME280;11166;48.692;8.182;2022-12-29T15:56:30;98354.97;;;10.23;100.00
22004;BME280;11166;48.692;8.182;2022-12-29T15:58:57;98353.34;;;10.15;100.00
22004;BME280;11166;48.692;8.182;2022-12-29T16:03:47;98339.63;;;10.08;100.00
22004;BME280;11166;48.692;8.182;2022-12-29T16:06:31;98335.22;;;10.09;100.00
22004;BME280;11166;48.692;8.182;2022-12-29T16:09:02;98343.81;;;10.22;100.00
22004;BME280;11166;48.692;8.182;2022-12-29T16:11:33;98340.59;;;10.20;100.00
22004;BME280;11166;48.692;8.182;2022-12-29T16:13:59;98328.66;;;10.19;100.00
22004;BME280;11166;48.692;8.182;2022-12-29T16:16:31;98336.19;;;10.27;100.00
22004;BME280;11166;48.692;8.182;2022-12-29T16:19:03;98327.44;;;10.22;100.00
22004;BME280;11166;48.692;8.182;2022-12-29T16:21:34;98322.47;;;10.20;100.00
22004;BME280;11166;48.692;8.182;2022-12-29T16:24:06;98332.59;;;10.28;100.00
22004;BME280;11166;48.692;8.182;2022-12-29T16:26:32;98326.22;;;10.31;100.00
22004;BME280;11166;48.692;8.182;2022-12-29T16:28:59;98331.59;;;10.29;100.00
22004;BME280;11166;48.692;8.182;2022-12-29T16:31:33;98334.78;;;10.38;100.00
22004;BME280;11166;48.692;8.182;2022-12-29T16:34:21;98337.78;;;10.35;100.00
22004;BME280;11166;48.692;8.182;2022-12-29T16:39:38;98329.44;;;10.20;100.00
22004;BME280;11166;48.692;8.182;2022-12-29T16:50:30;98322.25;;;10.22;100.00
22004;BME280;11166;48.692;8.182;2022-12-29T16:52:55;98324.22;;;10.13;100.00
22004;BME280;11166;48.692;8.182;2022-12-29T16:55:21;98336.63;;;10.11;100.00
22004;BME280;11166;48.692;8.182;2022-12-29T16:57:48;98345.00;;;10.20;100.00
22004;BME280;11166;48.692;8.182;2022-12-29T17:00:22;98356.97;;;10.21;100.00
22004;BME280;11166;48.692;8.182;2022-12-29T17:02:49;98366.69;;;10.12;100.00
22004;BME280;11166;48.692;8.182;2022-12-29T17:05:17;98354.34;;;10.14;100.00
22004;BME280;11166;48.692;8.182;2022-12-29T17:07:44;98366.34;;;10.09;100.00
22004;BME280;11166;48.692;8.182;2022-12-29T17:10:10;98370.72;;;10.08;100.00
22004;BME280;11166;48.692;8.182;2022-12-29T17:12:37;98371.50;;;10.15;100.00
22004;BME280;11166;48.692;8.182;2022-12-29T17:15:23;98383.28;;;10.24;100.00
22004;BME280;11166;48.692;8.182;2022-12-29T17:17:51;98381.25;;;10.13;100.00
22004;BME280;11166;48.692;8.182;2022-12-29T17:20:24;98398.22;;;10.16;100.00
22004;BME280;11166;48.692;8.182;2022-12-29T17:22:50;98393.06;;;10.22;100.00
22004;BME280;11166;48.692;8.182;2022-12-29T17:25:19;98396.44;;;10.23;100.00
22004;BME280;11166;48.692;8.182;2022-12-29T17:27:47;98397.81;;;10.12;100.00
22004;BME280;11166;48.692;8.182;2022-12-29T17:30:20;98391.44;;;10.15;100.00
22004;BME280;11166;48.692;8.182;2022-12-29T17:33:06;98405.59;;;9.99;100.00
22004;BME280;11166;48.692;8.182;2022-12-29T17:35:33;98404.41;;;9.95;100.00
22004;BME280;11166;48.692;8.182;2022-12-29T17:37:58;98391.66;;;9.87;100.00
22004;BME280;11166;48.692;8.182;2022-12-29T17:40:26;98388.44;;;9.98;100.00
22004;BME280;11166;48.692;8.182;2022-12-29T17:42:54;98389.66;;;10.09;100.00
22004;BME280;11166;48.692;8.182;2022-12-29T17:45:28;98401.22;;;9.99;100.00
22004;BME280;11166;48.692;8.182;2022-12-29T17:47:55;98405.00;;;10.10;100.00
22004;BME280;11166;48.692;8.182;2022-12-29T17:50:23;98388.25;;;9.99;100.00
22004;BME280;11166;48.692;8.182;2022-12-29T17:52:57;98387.69;;;9.91;100.00
22004;BME280;11166;48.692;8.182;2022-12-29T17:55:24;98385.31;;;9.83;100.00
22004;BME280;11166;48.692;8.182;2022-12-29T17:57:50;98404.44;;;9.82;100.00
22004;BME280;11166;48.692;8.182;2022-12-29T18:00:24;98403.81;;;9.86;100.00
22004;BME280;11166;48.692;8.182;2022-12-29T18:02:52;98397.25;;;9.84;100.00
22004;BME280;11166;48.692;8.182;2022-12-29T18:05:36;98410.78;;;9.86;100.00
22004;BME280;11166;48.692;8.182;2022-12-29T18:08:02;98418.38;;;9.81;100.00
22004;BME280;11166;48.692;8.182;2022-12-29T18:10:28;98421.34;;;9.78;100.00
22004;BME280;11166;48.692;8.182;2022-12-29T18:12:58;98413.38;;;9.73;100.00
22004;BME280;11166;48.692;8.182;2022-12-29T18:15:29;98415.78;;;9.54;100.00
22004;BME280;11166;48.692;8.182;2022-12-29T18:18:00;98420.31;;;9.46;100.00
22004;BME280;11166;48.692;8.182;2022-12-29T18:20:28;98401.63;;;9.50;100.00
22004;BME280;11166;48.692;8.182;2022-12-29T18:22:54;98403.41;;;9.50;100.00
22004;BME280;11166;48.692;8.182;2022-12-29T18:25:23;98419.97;;;9.55;100.00
22004;BME280;11166;48.692;8.182;2022-12-29T18:27:49;98413.97;;;9.55;100.00
22004;BME280;11166;48.692;8.182;2022-12-29T18:30:15;98400.22;;;9.54;100.00
22004;BME280;11166;48.692;8.182;2022-12-29T18:32:41;98402.03;;;9.54;100.00
22004;BME280;11166;48.692;8.182;2022-12-29T18:35:16;98408.75;;;9.35;100.00
22004;BME280;11166;48.692;8.182;2022-12-29T18:37:43;98411.94;;;9.37;100.00
22004;BME280;11166;48.692;8.182;2022-12-29T18:40:11;98421.91;;;9.40;100.00
22004;BME280;11166;48.692;8.182;2022-12-29T18:42:36;98420.09;;;9.34;100.00
22004;BME280;11166;48.692;8.182;2022-12-29T18:45:14;98420.91;;;9.28;100.00
22004;BME280;11166;48.692;8.182;2022-12-29T18:47:39;98427.25;;;9.32;100.00
22004;BME280;11166;48.692;8.182;2022-12-29T18:50:05;98430.28;;;9.42;100.00
22004;BME280;11166;48.692;8.182;2022-12-29T18:52:30;98425.09;;;9.36;100.00
22004;BME280;11166;48.692;8.182;2022-12-29T18:54:56;98423.91;;;9.38;100.00
22004;BME280;11166;48.692;8.182;2022-12-29T18:57:21;98439.63;;;9.37;100.00
22004;BME280;11166;48.692;8.182;2022-12-29T18:59:47;98437.84;;;9.37;100.00
22004;BME280;11166;48.692;8.182;2022-12-29T19:02:16;98424.69;;;9.45;100.00
22004;BME280;11166;48.692;8.182;2022-12-29T19:04:44;98430.84;;;9.31;100.00
22004;BME280;11166;48.692;8.182;2022-12-29T19:07:09;98416.53;;;9.29;100.00
22004;BME280;11166;48.692;8.182;2022-12-29T19:09:34;98411.13;;;9.23;100.00
22004;BME280;11166;48.692;8.182;2022-12-29T19:12:00;98412.34;;;9.27;100.00
22004;BME280;11166;48.692;8.182;2022-12-29T19:14:25;98412.34;;;9.27;100.00
22004;BME280;11166;48.692;8.182;2022-12-29T19:16:50;98413.34;;;9.26;100.00
22004;BME280;11166;48.692;8.182;2022-12-29T19:19:17;98421.47;;;9.23;100.00
22004;BME280;11166;48.692;8.182;2022-12-29T19:21:43;98417.91;;;9.24;100.00
22004;BME280;11166;48.692;8.182;2022-12-29T19:24:08;98424.88;;;9.24;100.00
22004;BME280;11166;48.692;8.182;2022-12-29T19:26:36;98424.44;;;9.14;100.00
22004;BME280;11166;48.692;8.182;2022-12-29T19:29:02;98427.63;;;9.16;100.00
22004;BME280;11166;48.692;8.182;2022-12-29T19:31:28;98431.81;;;9.17;100.00
22004;BME280;11166;48.692;8.182;2022-12-29T19:33:53;98447.75;;;9.14;100.00
22004;BME280;11166;48.692;8.182;2022-12-29T19:36:19;98431.41;;;9.20;100.00
22004;BME280;11166;48.692;8.182;2022-12-29T19:38:46;98440.81;;;9.27;100.00
22004;BME280;11166;48.692;8.182;2022-12-29T19:41:12;98458.66;;;9.16;100.00
22004;BME280;11166;48.692;8.182;2022-12-29T19:43:38;98448.53;;;9.14;100.00
22004;BME280;11166;48.692;8.182;2022-12-29T19:46:09;98440.34;;;9.11;100.00
22004;BME280;11166;48.692;8.182;2022-12-29T19:48:35;98448.94;;;9.18;100.00
22004;BME280;11166;48.692;8.182;2022-12-29T19:51:09;98438.75;;;9.10;100.00
22004;BME280;11166;48.692;8.182;2022-12-29T19:53:35;98443.38;;;9.14;100.00
22004;BME280;11166;48.692;8.182;2022-12-29T19:56:03;98462.44;;;9.07;100.00
22004;BME280;11166;48.692;8.182;2022-12-29T19:58:29;98461.63;;;9.06;100.00
22004;BME280;11166;48.692;8.182;2022-12-29T20:00:54;98459.41;;;8.97;100.00
22004;BME280;11166;48.692;8.182;2022-12-29T20:03:20;98467.16;;;8.97;100.00
22004;BME280;11166;48.692;8.182;2022-12-29T20:05:48;98469.59;;;9.05;100.00
22004;BME280;11166;48.692;8.182;2022-12-29T20:08:15;98467.03;;;9.11;100.00
22004;BME280;11166;48.692;8.182;2022-12-29T20:10:42;98459.84;;;9.07;100.00
22004;BME280;11166;48.692;8.182;2022-12-29T20:13:07;98471.97;;;9.00;100.00
22004;BME280;11166;48.692;8.182;2022-12-29T20:15:33;98494.47;;;9.06;100.00
22004;BME280;11166;48.692;8.182;2022-12-29T20:17:58;98500.25;;;9.01;100.00
22004;BME280;11166;48.692;8.182;2022-12-29T20:20:23;98499.22;;;8.96;100.00
22004;BME280;11166;48.692;8.182;2022-12-29T20:22:49;98490.66;;;8.95;100.00
22004;BME280;11166;48.692;8.182;2022-12-29T20:25:14;98483.84;;;8.87;100.00
22004;BME280;11166;48.692;8.182;2022-12-29T20:27:39;98473.09;;;8.90;100.00
22004;BME280;11166;48.692;8.182;2022-12-29T20:30:05;98477.66;;;8.88;100.00
22004;BME280;11166;48.692;8.182;2022-12-29T20:32:32;98461.13;;;8.83;100.00
22004;BME280;11166;48.692;8.182;2022-12-29T20:34:59;98465.94;;;8.86;100.00
22004;BME280;11166;48.692;8.182;2022-12-29T20:37:25;98482.63;;;8.83;100.00
22004;BME280;11166;48.692;8.182;2022-12-29T20:39:50;98489.78;;;8.81;100.00
22004;BME280;11166;48.692;8.182;2022-12-29T20:42:15;98508.34;;;8.91;100.00
22004;BME280;11166;48.692;8.182;2022-12-29T20:44:42;98497.38;;;8.89;100.00
22004;BME280;11166;48.692;8.182;2022-12-29T20:47:08;98500.75;;;8.83;100.00
22004;BME280;11166;48.692;8.182;2022-12-29T20:49:34;98489.16;;;8.79;100.00
22004;BME280;11166;48.692;8.182;2022-12-29T20:52:00;98508.50;;;8.83;100.00
22004;BME280;11166;48.692;8.182;2022-12-29T20:54:26;98496.78;;;8.87;100.00
22004;BME280;11166;48.692;8.182;2022-12-29T20:56:51;98505.59;;;9.00;100.00
22004;BME280;11166;48.692;8.182;2022-12-29T20:59:16;98495.41;;;8.91;100.00
22004;BME280;11166;48.692;8.182;2022-12-29T21:01:42;98480.25;;;8.88;100.00
22004;BME280;11166;48.692;8.182;2022-12-29T21:04:07;98476.84;;;8.81;100.00
22004;BME280;11166;48.692;8.182;2022-12-29T21:06:33;98452.53;;;8.69;100.00
22004;BME280;11166;48.692;8.182;2022-12-29T21:08:58;98471.97;;;8.65;100.00
22004;BME280;11166;48.692;8.182;2022-12-29T21:11:24;98475.41;;;8.72;100.00
22004;BME280;11166;48.692;8.182;2022-12-29T21:13:50;98484.53;;;8.68;100.00
22004;BME280;11166;48.692;8.182;2022-12-29T21:16:15;98476.97;;;8.67;100.00
22004;BME280;11166;48.692;8.182;2022-12-29T21:18:43;98479.75;;;8.65;100.00
22004;BME280;11166;48.692;8.182;2022-12-29T21:21:18;98480.91;;;8.63;100.00
22004;BME280;11166;48.692;8.182;2022-12-29T21:23:44;98502.59;;;8.62;99.19
22004;BME280;11166;48.692;8.182;2022-12-29T21:26:13;98499.25;;;8.68;99.52
22004;BME280;11166;48.692;8.182;2022-12-29T21:28:39;98504.63;;;8.66;100.00
22004;BME280;11166;48.692;8.182;2022-12-29T21:31:07;98492.47;;;8.67;100.00
22004;BME280;11166;48.692;8.182;2022-12-29T21:33:33;98492.25;;;8.62;96.28
22004;BME280;11166;48.692;8.182;2022-12-29T21:36:05;98508.81;;;8.67;95.99
22004;BME280;11166;48.692;8.182;2022-12-29T21:38:30;98501.69;;;8.76;96.73
22004;BME280;11166;48.692;8.182;2022-12-29T21:41:02;98507.84;;;8.75;96.19
22004;BME280;11166;48.692;8.182;2022-12-29T21:43:27;98507.31;;;8.86;98.39
22004;BME280;11166;48.692;8.182;2022-12-29T21:45:53;98503.94;;;8.85;97.01
22004;BME280;11166;48.692;8.182;2022-12-29T21:48:18;98499.97;;;8.89;95.71
22004;BME280;11166;48.692;8.182;2022-12-29T21:50:56;98498.03;;;8.98;94.06
22004;BME280;11166;48.692;8.182;2022-12-29T21:53:42;98503.78;;;8.94;95.11
22004;BME280;11166;48.692;8.182;2022-12-29T21:56:09;98507.41;;;8.99;97.36
22004;BME280;11166;48.692;8.182;2022-12-29T21:58:36;98507.97;;;8.95;97.22
22004;BME280;11166;48.692;8.182;2022-12-29T22:01:21;98518.84;;;8.83;95.72
22004;BME280;11166;48.692;8.182;2022-12-29T22:04:06;98521.06;;;8.86;96.14
22004;BME280;11166;48.692;8.182;2022-12-29T22:06:50;98527.25;;;8.92;95.40
22004;BME280;11166;48.692;8.182;2022-12-29T22:09:34;98533.81;;;8.88;95.40
22004;BME280;11166;48.692;8.182;2022-12-29T22:12:18;98545.97;;;8.94;91.59
22004;BME280;11166;48.692;8.182;2022-12-29T22:15:03;98549.72;;;8.85;96.24
22004;BME280;11166;48.692;8.182;2022-12-29T22:17:28;98547.69;;;8.80;99.13
22004;BME280;11166;48.692;8.182;2022-12-29T22:19:53;98562.22;;;8.81;95.60
22004;BME280;11166;48.692;8.182;2022-12-29T22:22:19;98561.84;;;8.84;91.38
22004;BME280;11166;48.692;8.182;2022-12-29T22:24:44;98570.06;;;9.29;87.51
22004;BME280;11166;48.692;8.182;2022-12-29T22:27:09;98566.44;;;9.23;92.22
22004;BME280;11166;48.692;8.182;2022-12-29T22:29:35;98574.06;;;9.04;90.49
22004;BME280;11166;48.692;8.182;2022-12-29T22:32:00;98569.97;;;9.16;90.49
22004;BME280;11166;48.692;8.182;2022-12-29T22:34:25;98577.53;;;9.11;92.21
22004;BME280;11166;48.692;8.182;2022-12-29T22:36:51;98573.53;;;9.08;90.50
22004;BME280;11166;48.692;8.182;2022-12-29T22:39:16;98580.72;;;9.13;89.44
22004;BME280;11166;48.692;8.182;2022-12-29T22:41:41;98588.06;;;9.09;93.18
22004;BME280;11166;48.692;8.182;2022-12-29T22:44:07;98586.69;;;9.13;92.02
22004;BME280;11166;48.692;8.182;2022-12-29T22:46:32;98588.94;;;9.23;92.16
22004;BME280;11166;48.692;8.182;2022-12-29T22:48:57;98600.47;;;9.20;93.40
22004;BME280;11166;48.692;8.182;2022-12-29T22:51:23;98606.44;;;9.21;92.93
22004;BME280;11166;48.692;8.182;2022-12-29T22:53:49;98601.06;;;9.22;92.64
22004;BME280;11166;48.692;8.182;2022-12-29T22:56:14;98601.50;;;9.26;93.45
22004;BME280;11166;48.692;8.182;2022-12-29T22:58:41;98605.69;;;9.27;92.73
22004;BME280;11166;48.692;8.182;2022-12-29T23:01:08;98598.66;;;9.21;92.80
22004;BME280;11166;48.692;8.182;2022-12-29T23:03:34;98604.09;;;9.26;95.24
22004;BME280;11166;48.692;8.182;2022-12-29T23:06:02;98599.13;;;9.31;94.23
22004;BME280;11166;48.692;8.182;2022-12-29T23:08:31;98609.63;;;9.23;92.78
22004;BME280;11166;48.692;8.182;2022-12-29T23:10:56;98640.94;;;9.28;93.98
22004;BME280;11166;48.692;8.182;2022-12-29T23:13:22;98642.84;;;9.19;95.12
22004;BME280;11166;48.692;8.182;2022-12-29T23:15:47;98642.22;;;9.11;98.04
22004;BME280;11166;48.692;8.182;2022-12-29T23:18:14;98630.19;;;8.97;99.52
22004;BME280;11166;48.692;8.182;2022-12-29T23:20:39;98631.34;;;8.94;99.89
22004;BME280;11166;48.692;8.182;2022-12-29T23:23:05;98642.34;;;9.03;100.00
22004;BME280;11166;48.692;8.182;2022-12-29T23:25:30;98639.28;;;8.93;100.00
22004;BME280;11166;48.692;8.182;2022-12-29T23:27:55;98640.47;;;8.90;100.00
22004;BME280;11166;48.692;8.182;2022-12-29T23:30:21;98634.66;;;8.81;100.00
22004;BME280;11166;48.692;8.182;2022-12-29T23:32:46;98622.44;;;8.75;100.00
22004;BME280;11166;48.692;8.182;2022-12-29T23:35:11;98631.91;;;8.89;100.00
22004;BME280;11166;48.692;8.182;2022-12-29T23:37:37;98626.44;;;8.78;100.00
22004;BME280;11166;48.692;8.182;2022-12-29T23:40:02;98640.88;;;8.87;100.00
22004;BME280;11166;48.692;8.182;2022-12-29T23:42:28;98645.00;;;8.81;100.00
22004;BME280;11166;48.692;8.182;2022-12-29T23:44:53;98645.59;;;8.83;100.00
22004;BME280;11166;48.692;8.182;2022-12-29T23:47:19;98638.66;;;8.84;100.00
22004;BME280;11166;48.692;8.182;2022-12-29T23:49:44;98645.34;;;8.78;100.00
22004;BME280;11166;48.692;8.182;2022-12-29T23:52:09;98647.66;;;8.67;100.00
22004;BME280;11166;48.692;8.182;2022-12-29T23:54:35;98639.38;;;8.78;100.00
22004;BME280;11166;48.692;8.182;2022-12-29T23:57:01;98642.91;;;8.70;100.00
22004;BME280;11166;48.692;8.182;2022-12-29T23:59:26;98646.13;;;8.72;100.00
